N410HA KMRH-KFFA
Flight info
| Callsign | N410HA |
|---|---|
| Flight time | 0h 45m |
| Altitude | 3500 |
| Route | OBX |
| Aircraft | BE17/L-V/C |
Departure
| Time | 2026-05-07 22:52 |
|---|---|
| Airport | Michael J. Smith Field (KMRH) |
Arrival
| Time | 2026-05-07 23:37 |
|---|---|
| Airport | First Flight Airport (KFFA) |
| Time | Latitude | Longitude | Altitude | Speed | Heading |
|---|---|---|---|---|---|
| 2026-05-07 22:48 | 34.73463 | -76.65475 | 9 ft | 0 kts | 268° |
| 2026-05-07 22:49 | 34.73484 | -76.65523 | 8 ft | 11 kts | 338° |
| 2026-05-07 22:49 | 34.73592 | -76.65529 | 8 ft | 17 kts | 354° |
| 2026-05-07 22:49 | 34.73617 | -76.65531 | 8 ft | 0 kts | 359° |
| 2026-05-07 22:50 | 34.73652 | -76.65533 | 8 ft | 12 kts | 354° |
| 2026-05-07 22:50 | 34.73712 | -76.65437 | 8 ft | 18 kts | 69° |
| 2026-05-07 22:50 | 34.73766 | -76.65340 | 9 ft | 9 kts | 347° |
| 2026-05-07 22:50 | 34.73770 | -76.65342 | 9 ft | 0 kts | 341° |
| 2026-05-07 22:51 | 34.73799 | -76.65357 | 9 ft | 11 kts | 319° |
| 2026-05-07 22:51 | 34.73787 | -76.65487 | 8 ft | 34 kts | 243° |
| 2026-05-07 22:51 | 34.73631 | -76.65978 | 79 ft | 81 kts | 246° |
| 2026-05-07 22:51 | 34.73430 | -76.66624 | 385 ft | 85 kts | 242° |
| 2026-05-07 22:52 | 34.73177 | -76.67325 | 576 ft | 95 kts | 244° |
| 2026-05-07 22:52 | 34.72832 | -76.67958 | 909 ft | 90 kts | 212° |
| 2026-05-07 22:52 | 34.72203 | -76.67933 | 1223 ft | 100 kts | 157° |
| 2026-05-07 22:52 | 34.71621 | -76.67396 | 1486 ft | 107 kts | 147° |
| 2026-05-07 22:53 | 34.71040 | -76.66821 | 1768 ft | 109 kts | 147° |
| 2026-05-07 22:53 | 34.70477 | -76.66143 | 1993 ft | 119 kts | 135° |
| 2026-05-07 22:53 | 34.69974 | -76.65347 | 2239 ft | 121 kts | 132° |
| 2026-05-07 22:53 | 34.69497 | -76.64484 | 2492 ft | 124 kts | 127° |
| 2026-05-07 22:54 | 34.69090 | -76.63541 | 2753 ft | 127 kts | 120° |
| 2026-05-07 22:54 | 34.68745 | -76.62543 | 2970 ft | 131 kts | 118° |
| 2026-05-07 22:54 | 34.68339 | -76.61529 | 3177 ft | 133 kts | 123° |
| 2026-05-07 22:54 | 34.67905 | -76.60568 | 3428 ft | 131 kts | 127° |
| 2026-05-07 22:55 | 34.67376 | -76.59578 | 3404 ft | 145 kts | 133° |
| 2026-05-07 22:55 | 34.66804 | -76.58556 | 3321 ft | 150 kts | 125° |
| 2026-05-07 22:55 | 34.66294 | -76.57415 | 3097 ft | 149 kts | 120° |
| 2026-05-07 22:55 | 34.65768 | -76.56363 | 2917 ft | 147 kts | 128° |
| 2026-05-07 22:56 | 34.65189 | -76.55325 | 2730 ft | 144 kts | 129° |
| 2026-05-07 22:56 | 34.64556 | -76.54432 | 2581 ft | 138 kts | 144° |
| 2026-05-07 22:56 | 34.64088 | -76.53461 | 2574 ft | 140 kts | 86° |
| 2026-05-07 22:56 | 34.64409 | -76.52377 | 2551 ft | 137 kts | 52° |
| 2026-05-07 22:57 | 34.64980 | -76.51489 | 2585 ft | 128 kts | 34° |
| 2026-05-07 22:57 | 34.65630 | -76.50729 | 2582 ft | 130 kts | 32° |
| 2026-05-07 22:57 | 34.66290 | -76.49944 | 2534 ft | 136 kts | 36° |
| 2026-05-07 22:57 | 34.66983 | -76.49129 | 2530 ft | 145 kts | 33° |
| 2026-05-07 22:58 | 34.67765 | -76.48280 | 2507 ft | 155 kts | 31° |
| 2026-05-07 22:58 | 34.68626 | -76.47459 | 2493 ft | 157 kts | 28° |
| 2026-05-07 22:58 | 34.69507 | -76.46655 | 2469 ft | 159 kts | 27° |
| 2026-05-07 22:58 | 34.70417 | -76.45863 | 2448 ft | 158 kts | 22° |
| 2026-05-07 22:59 | 34.71304 | -76.45064 | 2430 ft | 161 kts | 27° |
| 2026-05-07 22:59 | 34.72175 | -76.44212 | 2497 ft | 158 kts | 36° |
| 2026-05-07 22:59 | 34.73070 | -76.43402 | 2355 ft | 164 kts | 19° |
| 2026-05-07 22:59 | 34.74098 | -76.42739 | 2189 ft | 163 kts | 19° |
| 2026-05-07 23:00 | 34.75050 | -76.41927 | 2119 ft | 164 kts | 32° |
| 2026-05-07 23:00 | 34.75926 | -76.41075 | 2198 ft | 154 kts | 26° |
| 2026-05-07 23:00 | 34.76788 | -76.40287 | 2283 ft | 151 kts | 27° |
| 2026-05-07 23:00 | 34.77566 | -76.39464 | 2458 ft | 149 kts | 38° |
| 2026-05-07 23:01 | 34.78211 | -76.38485 | 2707 ft | 141 kts | 40° |
| 2026-05-07 23:01 | 34.78827 | -76.37600 | 2967 ft | 137 kts | 37° |
| 2026-05-07 23:01 | 34.79522 | -76.36716 | 2976 ft | 149 kts | 25° |
| 2026-05-07 23:01 | 34.80436 | -76.36034 | 2898 ft | 155 kts | 11° |
| 2026-05-07 23:02 | 34.81467 | -76.35476 | 2796 ft | 159 kts | 18° |
| 2026-05-07 23:02 | 34.82326 | -76.34750 | 3115 ft | 142 kts | 26° |
| 2026-05-07 23:02 | 34.83077 | -76.33985 | 3334 ft | 139 kts | 25° |
| 2026-05-07 23:02 | 34.83837 | -76.33142 | 3330 ft | 156 kts | 39° |
| 2026-05-07 23:03 | 34.84508 | -76.32139 | 3464 ft | 155 kts | 40° |
| 2026-05-07 23:03 | 34.85195 | -76.31094 | 3464 ft | 161 kts | 41° |
| 2026-05-07 23:03 | 34.85901 | -76.30039 | 3495 ft | 161 kts | 33° |
| 2026-05-07 23:03 | 34.86699 | -76.29092 | 3502 ft | 162 kts | 37° |
| 2026-05-07 23:04 | 34.87215 | -76.28330 | 3582 ft | 168 kts | 46° |
| 2026-05-07 23:04 | 34.87947 | -76.27160 | 3645 ft | 180 kts | 45° |
| 2026-05-07 23:04 | 34.88749 | -76.25914 | 3652 ft | 190 kts | 47° |
| 2026-05-07 23:04 | 34.89574 | -76.24626 | 3686 ft | 194 kts | 45° |
| 2026-05-07 23:05 | 34.90445 | -76.23361 | 3695 ft | 197 kts | 44° |
| 2026-05-07 23:05 | 34.91310 | -76.22028 | 3580 ft | 207 kts | 50° |
| 2026-05-07 23:05 | 34.92159 | -76.20639 | 3661 ft | 199 kts | 45° |
| 2026-05-07 23:05 | 34.93024 | -76.19313 | 3708 ft | 200 kts | 49° |
| 2026-05-07 23:06 | 34.93848 | -76.17902 | 3478 ft | 213 kts | 51° |
| 2026-05-07 23:06 | 34.94678 | -76.16330 | 3209 ft | 220 kts | 53° |
| 2026-05-07 23:06 | 34.95485 | -76.14817 | 3360 ft | 203 kts | 50° |
| 2026-05-07 23:06 | 34.96311 | -76.13528 | 3644 ft | 188 kts | 44° |
| 2026-05-07 23:07 | 34.97164 | -76.12291 | 3731 ft | 190 kts | 44° |
| 2026-05-07 23:07 | 34.98008 | -76.11059 | 3830 ft | 191 kts | 43° |
| 2026-05-07 23:07 | 34.98882 | -76.09819 | 3877 ft | 194 kts | 40° |
| 2026-05-07 23:07 | 34.99828 | -76.08563 | 3716 ft | 206 kts | 40° |
| 2026-05-07 23:08 | 35.00824 | -76.07288 | 3562 ft | 210 kts | 40° |
| 2026-05-07 23:08 | 35.01828 | -76.06004 | 3510 ft | 209 kts | 40° |
| 2026-05-07 23:08 | 35.02821 | -76.04693 | 3462 ft | 208 kts | 42° |
| 2026-05-07 23:08 | 35.03775 | -76.03391 | 3428 ft | 207 kts | 42° |
| 2026-05-07 23:09 | 35.04749 | -76.02094 | 3371 ft | 207 kts | 41° |
| 2026-05-07 23:09 | 35.05719 | -76.00810 | 3375 ft | 204 kts | 41° |
| 2026-05-07 23:09 | 35.06625 | -75.99497 | 3386 ft | 205 kts | 48° |
| 2026-05-07 23:09 | 35.07433 | -75.98055 | 3394 ft | 205 kts | 51° |
| 2026-05-07 23:10 | 35.08282 | -75.96663 | 3393 ft | 203 kts | 46° |
| 2026-05-07 23:10 | 35.09163 | -75.95333 | 3467 ft | 200 kts | 46° |
| 2026-05-07 23:10 | 35.09947 | -75.93898 | 3463 ft | 203 kts | 54° |
| 2026-05-07 23:10 | 35.10648 | -75.92417 | 3510 ft | 203 kts | 57° |
| 2026-05-07 23:11 | 35.11324 | -75.90885 | 3543 ft | 203 kts | 57° |
| 2026-05-07 23:11 | 35.12014 | -75.89390 | 3588 ft | 203 kts | 57° |
| 2026-05-07 23:11 | 35.12676 | -75.87841 | 3603 ft | 205 kts | 59° |
| 2026-05-07 23:11 | 35.13305 | -75.86275 | 3610 ft | 205 kts | 60° |
| 2026-05-07 23:12 | 35.13919 | -75.84714 | 3634 ft | 205 kts | 60° |
| 2026-05-07 23:12 | 35.14554 | -75.83133 | 3669 ft | 204 kts | 59° |
| 2026-05-07 23:12 | 35.15212 | -75.81602 | 3694 ft | 204 kts | 56° |
| 2026-05-07 23:12 | 35.15905 | -75.80096 | 3694 ft | 206 kts | 58° |
| 2026-05-07 23:13 | 35.16501 | -75.78464 | 3657 ft | 210 kts | 65° |
| 2026-05-07 23:13 | 35.17018 | -75.76807 | 3636 ft | 210 kts | 68° |
| 2026-05-07 23:13 | 35.17459 | -75.75091 | 3659 ft | 209 kts | 72° |
| 2026-05-07 23:13 | 35.17851 | -75.73391 | 3691 ft | 208 kts | 73° |
| 2026-05-07 23:14 | 35.18191 | -75.71692 | 3681 ft | 209 kts | 76° |
| 2026-05-07 23:14 | 35.18498 | -75.69933 | 3672 ft | 209 kts | 73° |
| 2026-05-07 23:14 | 35.19064 | -75.68356 | 3773 ft | 201 kts | 56° |
| 2026-05-07 23:14 | 35.19801 | -75.66916 | 3822 ft | 201 kts | 51° |
| 2026-05-07 23:15 | 35.20602 | -75.65491 | 3803 ft | 203 kts | 45° |
| 2026-05-07 23:15 | 35.21566 | -75.64216 | 3767 ft | 204 kts | 44° |
| 2026-05-07 23:15 | 35.22416 | -75.62827 | 3714 ft | 208 kts | 49° |
| 2026-05-07 23:15 | 35.23221 | -75.61344 | 3659 ft | 210 kts | 54° |
| 2026-05-07 23:16 | 35.23928 | -75.59797 | 3650 ft | 209 kts | 56° |
| 2026-05-07 23:16 | 35.24632 | -75.58252 | 3691 ft | 207 kts | 56° |
| 2026-05-07 23:16 | 35.25368 | -75.56710 | 3686 ft | 206 kts | 52° |
| 2026-05-07 23:16 | 35.26211 | -75.55302 | 3671 ft | 205 kts | 44° |
| 2026-05-07 23:17 | 35.27203 | -75.54087 | 3637 ft | 201 kts | 30° |
| 2026-05-07 23:17 | 35.28346 | -75.53172 | 3798 ft | 187 kts | 19° |
| 2026-05-07 23:17 | 35.29470 | -75.52462 | 3905 ft | 185 kts | 15° |
| 2026-05-07 23:17 | 35.30687 | -75.51829 | 3758 ft | 194 kts | 13° |
| 2026-05-07 23:18 | 35.31966 | -75.51250 | 3538 ft | 200 kts | 6° |
| 2026-05-07 23:18 | 35.33305 | -75.50839 | 3490 ft | 194 kts | 4° |
| 2026-05-07 23:18 | 35.34611 | -75.50469 | 3518 ft | 189 kts | 2° |
| 2026-05-07 23:18 | 35.35887 | -75.50095 | 3494 ft | 189 kts | 3° |
| 2026-05-07 23:19 | 35.37172 | -75.49714 | 3526 ft | 185 kts | 1° |
| 2026-05-07 23:19 | 35.38408 | -75.49435 | 3634 ft | 181 kts | 1° |
| 2026-05-07 23:19 | 35.39646 | -75.49082 | 3612 ft | 184 kts | 2° |
| 2026-05-07 23:19 | 35.40913 | -75.48799 | 3570 ft | 186 kts | 358° |
| 2026-05-07 23:20 | 35.42206 | -75.48552 | 3534 ft | 186 kts | 358° |
| 2026-05-07 23:20 | 35.43469 | -75.48339 | 3623 ft | 181 kts | 358° |
| 2026-05-07 23:20 | 35.44732 | -75.47997 | 3560 ft | 187 kts | 2° |
| 2026-05-07 23:20 | 35.45969 | -75.47683 | 3694 ft | 166 kts | 1° |
| 2026-05-07 23:21 | 35.46927 | -75.47317 | 3595 ft | 133 kts | 356° |
| 2026-05-07 23:21 | 35.47934 | -75.47292 | 3493 ft | 156 kts | 349° |
| 2026-05-07 23:21 | 35.49072 | -75.47159 | 3522 ft | 169 kts | 356° |
| 2026-05-07 23:21 | 35.50263 | -75.46986 | 3577 ft | 170 kts | 351° |
| 2026-05-07 23:22 | 35.51442 | -75.46915 | 3649 ft | 173 kts | 354° |
| 2026-05-07 23:22 | 35.52646 | -75.46782 | 3696 ft | 175 kts | 353° |
| 2026-05-07 23:22 | 35.53855 | -75.46666 | 3783 ft | 172 kts | 352° |
| 2026-05-07 23:22 | 35.55062 | -75.46553 | 3807 ft | 177 kts | 355° |
| 2026-05-07 23:23 | 35.56324 | -75.46411 | 3729 ft | 183 kts | 353° |
| 2026-05-07 23:23 | 35.57558 | -75.46343 | 3829 ft | 176 kts | 349° |
| 2026-05-07 23:23 | 35.58799 | -75.46345 | 3734 ft | 182 kts | 348° |
| 2026-05-07 23:23 | 35.60103 | -75.46407 | 3518 ft | 188 kts | 346° |
| 2026-05-07 23:24 | 35.61402 | -75.46568 | 3432 ft | 184 kts | 341° |
| 2026-05-07 23:24 | 35.62661 | -75.46808 | 3285 ft | 187 kts | 342° |
| 2026-05-07 23:24 | 35.63914 | -75.47067 | 3366 ft | 174 kts | 338° |
| 2026-05-07 23:24 | 35.65088 | -75.47328 | 3462 ft | 171 kts | 340° |
| 2026-05-07 23:25 | 35.66282 | -75.47544 | 3493 ft | 171 kts | 339° |
| 2026-05-07 23:25 | 35.67454 | -75.47764 | 3533 ft | 171 kts | 340° |
| 2026-05-07 23:25 | 35.68645 | -75.48040 | 3485 ft | 173 kts | 338° |
| 2026-05-07 23:25 | 35.69813 | -75.48376 | 3537 ft | 169 kts | 335° |
| 2026-05-07 23:26 | 35.70943 | -75.48732 | 3554 ft | 169 kts | 334° |
| 2026-05-07 23:26 | 35.72087 | -75.49132 | 3515 ft | 170 kts | 330° |
| 2026-05-07 23:26 | 35.73195 | -75.49589 | 3575 ft | 167 kts | 332° |
| 2026-05-07 23:26 | 35.74306 | -75.50008 | 3644 ft | 165 kts | 330° |
| 2026-05-07 23:27 | 35.76536 | -75.50885 | 3590 ft | 171 kts | 331° |
| 2026-05-07 23:27 | 35.77661 | -75.51334 | 3601 ft | 169 kts | 329° |
| 2026-05-07 23:27 | 35.78746 | -75.51912 | 3509 ft | 170 kts | 322° |
| 2026-05-07 23:28 | 35.79815 | -75.52511 | 3500 ft | 172 kts | 332° |
| 2026-05-07 23:28 | 35.80974 | -75.52901 | 3544 ft | 169 kts | 333° |
| 2026-05-07 23:28 | 35.82074 | -75.53369 | 3544 ft | 167 kts | 328° |
| 2026-05-07 23:28 | 35.83195 | -75.53857 | 3538 ft | 169 kts | 330° |
| 2026-05-07 23:29 | 35.84289 | -75.54359 | 3512 ft | 171 kts | 330° |
| 2026-05-07 23:29 | 35.85451 | -75.54839 | 3350 ft | 178 kts | 332° |
| 2026-05-07 23:29 | 35.86628 | -75.55276 | 3367 ft | 175 kts | 334° |
| 2026-05-07 23:29 | 35.87804 | -75.55714 | 3285 ft | 174 kts | 330° |
| 2026-05-07 23:30 | 35.88923 | -75.56242 | 3078 ft | 174 kts | 329° |
| 2026-05-07 23:30 | 35.90035 | -75.56776 | 2962 ft | 167 kts | 327° |
| 2026-05-07 23:30 | 35.91055 | -75.57378 | 2903 ft | 159 kts | 323° |
| 2026-05-07 23:30 | 35.92056 | -75.58035 | 2571 ft | 168 kts | 323° |
| 2026-05-07 23:31 | 35.93137 | -75.58739 | 1988 ft | 183 kts | 324° |
| 2026-05-07 23:31 | 35.94199 | -75.59498 | 1862 ft | 169 kts | 324° |
| 2026-05-07 23:31 | 35.95159 | -75.60214 | 1897 ft | 151 kts | 322° |
| 2026-05-07 23:31 | 35.96060 | -75.60798 | 1916 ft | 141 kts | 322° |
| 2026-05-07 23:32 | 35.96802 | -75.61536 | 1716 ft | 134 kts | 306° |
| 2026-05-07 23:32 | 35.97390 | -75.62399 | 1537 ft | 130 kts | 302° |
| 2026-05-07 23:32 | 35.97998 | -75.63210 | 1386 ft | 130 kts | 310° |
| 2026-05-07 23:32 | 35.98731 | -75.63847 | 1314 ft | 128 kts | 331° |
| 2026-05-07 23:33 | 35.99643 | -75.63907 | 1293 ft | 130 kts | 7° |
| 2026-05-07 23:33 | 36.00477 | -75.63563 | 1297 ft | 126 kts | 15° |
| 2026-05-07 23:33 | 36.01331 | -75.63129 | 1193 ft | 133 kts | 18° |
| 2026-05-07 23:33 | 36.02207 | -75.62679 | 1130 ft | 137 kts | 13° |
| 2026-05-07 23:34 | 36.03100 | -75.62398 | 1100 ft | 131 kts | 2° |
| 2026-05-07 23:34 | 36.03919 | -75.62456 | 1043 ft | 103 kts | 324° |
| 2026-05-07 23:34 | 36.04360 | -75.63042 | 913 ft | 79 kts | 272° |
| 2026-05-07 23:34 | 36.04409 | -75.63694 | 759 ft | 74 kts | 268° |
| 2026-05-07 23:35 | 36.04421 | -75.64329 | 644 ft | 75 kts | 262° |
| 2026-05-07 23:35 | 36.04368 | -75.64983 | 627 ft | 69 kts | 256° |
| 2026-05-07 23:35 | 36.04295 | -75.65574 | 601 ft | 62 kts | 246° |
| 2026-05-07 23:35 | 36.04039 | -75.66011 | 529 ft | 63 kts | 223° |
| 2026-05-07 23:36 | 36.03682 | -75.66331 | 412 ft | 67 kts | 213° |
| 2026-05-07 23:36 | 36.03247 | -75.66600 | 322 ft | 67 kts | 206° |
| 2026-05-07 23:36 | 36.02850 | -75.66788 | 221 ft | 56 kts | 205° |
| 2026-05-07 23:36 | 36.02480 | -75.66918 | 121 ft | 54 kts | 202° |
| 2026-05-07 23:37 | 36.02121 | -75.67039 | 26 ft | 52 kts | 199° |
| 2026-05-07 23:37 | 36.01814 | -75.67137 | 10 ft | 34 kts | 198° |
| 2026-05-07 23:37 | 36.01582 | -75.67214 | 10 ft | 32 kts | 197° |
| 2026-05-07 23:37 | 36.01464 | -75.67199 | 10 ft | 18 kts | 115° |
| 2026-05-07 23:38 | 36.01407 | -75.67163 | 11 ft | 3 kts | 245° |
| 2026-05-07 23:38 | 36.01406 | -75.67169 | 11 ft | 0 kts | 273° |